Time;durP1;ratioP1;P1;durP2;ratioP2;P2;SDS_P1;SDS_P2;PMS_P1;PMS_P2;Temp;Humidity;BMP_temperature;BMP_pressure;BME280_temperature;BME280_humidity;BME280_pressure;Samples;Min_cycle;Max_cycle;Signal;HPM_P1;HPM_P2
2023/09/17 00:02:16;;;;;;;39.22;21.85;;;;;;;-144.57;100.00;62443.72;4858150;29;20054;-61
2023/09/17 00:04:41;;;;;;;38.08;22.70;;;;;;;-144.57;100.00;62443.72;4857967;29;20403;-59
2023/09/17 00:07:09;;;;;;;37.85;21.08;;;;;;;-144.57;100.00;62443.72;4858224;29;20056;-60
2023/09/17 00:09:35;;;;;;;15.95;10.18;;;;;;;-144.57;100.00;62443.72;4859132;29;20050;-61
2023/09/17 00:12:01;;;;;;;33.70;18.95;;;;;;;-144.57;100.00;62443.72;4858642;29;20068;-60
2023/09/17 00:14:26;;;;;;;30.08;17.98;;;;;;;-144.57;100.00;62443.72;4857710;29;20080;-61
2023/09/17 00:16:52;;;;;;;32.80;19.23;;;;;;;-144.57;100.00;62443.72;4857833;29;20049;-60
2023/09/17 00:19:19;;;;;;;21.08;13.02;;;;;;;-144.57;100.00;62443.72;4842583;29;20045;-61
2023/09/17 00:21:45;;;;;;;24.00;14.52;;;;;;;-144.57;100.00;62443.72;4858884;29;20072;-59
2023/09/17 00:24:12;;;;;;;24.75;15.35;;;;;;;-144.57;100.00;62443.72;4859104;29;20511;-61
2023/09/17 00:26:37;;;;;;;28.92;18.58;;;;;;;-144.57;100.00;62443.72;4859037;29;20041;-60
2023/09/17 00:29:03;;;;;;;26.60;18.15;;;;;;;-144.57;100.00;62443.72;4859330;29;20050;-60
2023/09/17 00:31:29;;;;;;;21.75;14.75;;;;;;;-144.57;100.00;62443.72;4859056;29;20053;-60
2023/09/17 00:33:55;;;;;;;18.83;10.77;;;;;;;-144.57;100.00;62443.72;4859275;29;20045;-60
2023/09/17 00:36:21;;;;;;;16.73;10.52;;;;;;;-144.57;100.00;62443.72;4858935;29;20232;-62
2023/09/17 00:38:46;;;;;;;18.70;13.00;;;;;;;-144.57;100.00;62443.72;4859330;29;20050;-61
2023/09/17 00:41:12;;;;;;;13.20;9.68;;;;;;;-144.57;100.00;62443.72;4827162;29;20057;-61
2023/09/17 00:43:38;;;;;;;18.08;11.85;;;;;;;-144.57;100.00;62443.72;4857841;29;20058;-60
2023/09/17 00:46:04;;;;;;;17.90;11.30;;;;;;;-144.57;100.00;62443.72;4858834;29;20084;-61
2023/09/17 00:48:31;;;;;;;16.08;11.25;;;;;;;-144.57;100.00;62443.72;4857461;29;20061;-61
2023/09/17 00:50:57;;;;;;;18.10;11.88;;;;;;;-144.57;100.00;62443.72;4857822;29;20041;-59
2023/09/17 00:53:24;;;;;;;18.15;11.40;;;;;;;-144.57;100.00;62443.72;4858596;29;20504;-60
2023/09/17 00:55:50;;;;;;;21.48;13.32;;;;;;;-144.57;100.00;62443.72;4858658;29;20053;-60
2023/09/17 00:58:16;;;;;;;23.48;13.70;;;;;;;-144.57;100.00;62443.72;4858977;29;20046;-60
2023/09/17 01:00:43;;;;;;;24.27;14.93;;;;;;;-144.57;100.00;62443.72;4842189;29;20054;-62
2023/09/17 01:03:09;;;;;;;17.67;12.73;;;;;;;-144.57;100.00;62443.72;4857395;29;20137;-61
2023/09/17 01:05:41;;;;;;;29.13;14.48;;;;;;;-144.57;100.00;62443.72;4857360;29;20058;-61
2023/09/17 01:08:07;;;;;;;24.27;15.00;;;;;;;-144.57;100.00;62443.72;4856783;29;20045;-58
2023/09/17 01:10:39;;;;;;;20.42;14.07;;;;;;;-144.57;100.00;62443.72;4842961;29;20445;-60
2023/09/17 01:13:06;;;;;;;29.95;19.38;;;;;;;-144.57;100.00;62443.72;4861368;29;20069;-61
2023/09/17 01:15:34;;;;;;;22.05;12.98;;;;;;;-144.57;100.00;62443.72;4861965;29;20128;-61
2023/09/17 01:18:03;;;;;;;19.58;11.93;;;;;;;-144.57;100.00;62443.72;4830182;29;20046;-60
2023/09/17 01:20:35;;;;;;;18.52;11.32;;;;;;;-144.57;100.00;62443.72;4861865;29;20516;-60
2023/09/17 01:23:05;;;;;;;14.68;11.60;;;;;;;-144.57;100.00;62443.72;4861751;29;20057;-61
2023/09/17 01:25:47;;;;;;;27.05;11.85;;;;;;;-144.57;100.00;62443.72;4860656;29;20086;-60
2023/09/17 01:28:13;;;;;;;16.20;10.93;;;;;;;-144.57;100.00;62443.72;4860665;29;20507;-59
2023/09/17 01:30:42;;;;;;;16.55;11.23;;;;;;;-144.57;100.00;62443.72;4845194;29;20062;-60
2023/09/17 01:33:11;;;;;;;15.38;9.00;;;;;;;-144.57;100.00;62443.72;4845466;29;20473;-61
2023/09/17 01:35:52;;;;;;;15.32;10.25;;;;;;;-144.57;100.00;62443.72;4861514;29;20144;-59
2023/09/17 01:38:19;;;;;;;13.07;9.98;;;;;;;-144.57;100.00;62443.72;4860381;29;20376;-61
2023/09/17 01:40:48;;;;;;;18.95;10.88;;;;;;;-144.57;100.00;62443.72;4860391;29;20111;-61
2023/09/17 01:43:20;;;;;;;16.25;10.48;;;;;;;-144.57;100.00;62443.72;4860471;29;20042;-60
2023/09/17 01:45:46;;;;;;;16.08;10.82;;;;;;;-144.57;100.00;62443.72;4860325;29;20460;-60
2023/09/17 01:48:13;;;;;;;18.55;10.68;;;;;;;-144.57;100.00;62443.72;4860014;29;20058;-59
2023/09/17 01:50:40;;;;;;;24.23;10.90;;;;;;;-144.57;100.00;62443.72;4860284;29;20151;-61
2023/09/17 01:53:06;;;;;;;17.10;10.57;;;;;;;-144.57;100.00;62443.72;4859912;29;20138;-60
2023/09/17 01:55:32;;;;;;;15.18;9.32;;;;;;;-144.57;100.00;62443.72;4840999;29;20597;-61
2023/09/17 01:57:58;;;;;;;15.70;8.77;;;;;;;-144.57;100.00;62443.72;4841218;29;20094;-61
2023/09/17 02:00:24;;;;;;;12.23;8.15;;;;;;;-144.57;100.00;62443.72;4843078;29;20046;-60
2023/09/17 02:02:52;;;;;;;15.85;8.98;;;;;;;-144.57;100.00;62443.72;4841537;29;20137;-60
2023/09/17 02:05:20;;;;;;;15.95;8.23;;;;;;;-144.57;100.00;62443.72;4842900;29;20084;-60
2023/09/17 02:07:46;;;;;;;14.98;9.02;;;;;;;-144.57;100.00;62443.72;4842885;29;20057;-59
2023/09/17 02:10:13;;;;;;;15.55;9.20;;;;;;;-144.57;100.00;62443.72;4841331;29;20085;-61
2023/09/17 02:12:39;;;;;;;19.10;10.00;;;;;;;-144.57;100.00;62443.72;4841521;29;20050;-59
2023/09/17 02:15:05;;;;;;;15.40;10.55;;;;;;;-144.57;100.00;62443.72;4842457;29;20053;-59
2023/09/17 02:17:31;;;;;;;13.85;9.00;;;;;;;-144.57;100.00;62443.72;4841217;29;20046;-60
2023/09/17 02:19:57;;;;;;;13.15;8.32;;;;;;;-144.57;100.00;62443.72;4842420;29;20056;-60
2023/09/17 02:22:23;;;;;;;20.70;11.75;;;;;;;-144.57;100.00;62443.72;4845131;29;20098;-59
2023/09/17 02:24:49;;;;;;;15.25;10.20;;;;;;;-144.57;100.00;62443.72;4858402;29;20086;-60
2023/09/17 02:27:15;;;;;;;19.77;9.75;;;;;;;-144.57;100.00;62443.72;4860325;29;20049;-60
2023/09/17 02:29:41;;;;;;;15.40;8.95;;;;;;;-144.57;100.00;62443.72;4859327;29;20530;-60
2023/09/17 02:32:06;;;;;;;15.68;9.63;;;;;;;-144.57;100.00;62443.72;4860240;29;20090;-60
2023/09/17 02:34:32;;;;;;;14.90;9.23;;;;;;;-144.57;100.00;62443.72;4858862;29;20048;-61
2023/09/17 02:36:58;;;;;;;18.77;10.93;;;;;;;-144.57;100.00;62443.72;4859943;29;20124;-60
2023/09/17 02:39:23;;;;;;;15.02;10.10;;;;;;;-144.57;100.00;62443.72;4860145;29;20072;-61
2023/09/17 02:41:49;;;;;;;15.13;9.40;;;;;;;-144.57;100.00;62443.72;4858808;29;20064;-61
2023/09/17 02:44:15;;;;;;;16.88;9.85;;;;;;;-144.57;100.00;62443.72;4843709;29;20046;-61
2023/09/17 02:46:40;;;;;;;15.23;9.07;;;;;;;-144.57;100.00;62443.72;4859090;29;20041;-60
2023/09/17 02:49:06;;;;;;;17.33;8.90;;;;;;;-144.57;100.00;62443.72;4859051;29;20069;-60
2023/09/17 02:51:32;;;;;;;13.70;8.75;;;;;;;-144.57;100.00;62443.72;4859420;29;20133;-60
2023/09/17 02:53:58;;;;;;;16.70;9.93;;;;;;;-144.57;100.00;62443.72;4860568;29;20439;-59
2023/09/17 02:56:25;;;;;;;14.85;9.60;;;;;;;-144.57;100.00;62443.72;4858759;29;20554;-61
2023/09/17 02:58:50;;;;;;;12.13;8.32;;;;;;;-144.57;100.00;62443.72;4859074;29;20057;-60
2023/09/17 03:01:18;;;;;;;15.43;8.60;;;;;;;-144.57;100.00;62443.72;4858909;29;20481;-61
2023/09/17 03:03:45;;;;;;;18.33;9.52;;;;;;;-144.57;100.00;62443.72;4858989;29;20420;-60
2023/09/17 03:06:11;;;;;;;13.98;9.18;;;;;;;-144.57;100.00;62443.72;4860002;29;20049;-60
2023/09/17 03:08:41;;;;;;;15.32;9.45;;;;;;;-144.57;100.00;62443.72;4858814;29;20050;-61
2023/09/17 03:11:15;;;;;;;12.23;8.50;;;;;;;-144.57;100.00;62443.72;4843027;29;20057;-60
2023/09/17 03:13:45;;;;;;;16.27;9.15;;;;;;;-144.57;100.00;62443.72;4858425;29;20543;-58
2023/09/17 03:16:16;;;;;;;14.93;8.65;;;;;;;-144.57;100.00;62443.72;4858157;29;20057;-60
2023/09/17 03:18:43;;;;;;;13.10;8.23;;;;;;;-144.57;100.00;62443.72;4858901;29;20491;-61
2023/09/17 03:21:09;;;;;;;12.40;8.30;;;;;;;-144.57;100.00;62443.72;4859060;29;20264;-59
2023/09/17 03:23:35;;;;;;;12.30;7.85;;;;;;;-144.57;100.00;62443.72;4858861;29;20432;-61
2023/09/17 03:26:03;;;;;;;13.02;8.05;;;;;;;-144.57;100.00;62443.72;4843194;29;20052;-59
2023/09/17 03:28:33;;;;;;;11.10;7.72;;;;;;;-144.57;100.00;62443.72;4858654;29;20085;-60
2023/09/17 03:31:00;;;;;;;11.85;7.63;;;;;;;-144.57;100.00;62443.72;4858798;29;20152;-60
2023/09/17 03:33:27;;;;;;;13.48;8.25;;;;;;;-144.57;100.00;62443.72;4859833;29;20467;-58
2023/09/17 03:35:54;;;;;;;13.40;7.68;;;;;;;-144.57;100.00;62443.72;4858416;29;20053;-60
2023/09/17 03:38:21;;;;;;;14.32;8.13;;;;;;;-144.57;100.00;62443.72;4858488;29;20055;-60
2023/09/17 03:40:47;;;;;;;15.27;9.07;;;;;;;-144.57;100.00;62443.72;4858327;29;20053;-61
2023/09/17 03:43:14;;;;;;;11.30;8.50;;;;;;;-144.57;100.00;62443.72;4858182;29;20086;-60
2023/09/17 03:45:41;;;;;;;13.00;8.50;;;;;;;-144.57;100.00;62443.72;4858275;29;20053;-61
2023/09/17 03:48:07;;;;;;;13.77;9.48;;;;;;;-144.57;100.00;62443.72;4859217;29;20057;-60
2023/09/17 03:50:35;;;;;;;11.90;8.27;;;;;;;-144.57;100.00;62443.72;4842895;29;20041;-61
2023/09/17 03:53:02;;;;;;;13.35;9.18;;;;;;;-144.57;100.00;62443.72;4858161;29;20053;-59
2023/09/17 03:55:28;;;;;;;15.63;9.93;;;;;;;-144.57;100.00;62443.72;4858257;29;20530;-61
2023/09/17 03:57:56;;;;;;;18.17;10.50;;;;;;;-144.57;100.00;62443.72;4858142;29;20136;-59
2023/09/17 04:00:24;;;;;;;18.38;10.80;;;;;;;-144.57;100.00;62443.72;4843053;29;20100;-60
2023/09/17 04:02:49;;;;;;;40.25;23.52;;;;;;;-144.57;100.00;62443.72;4857585;29;20042;-60
2023/09/17 04:05:16;;;;;;;32.78;19.48;;;;;;;-144.57;100.00;62443.72;4857319;29;20045;-61
2023/09/17 04:07:44;;;;;;;31.00;17.20;;;;;;;-144.57;100.00;62443.72;4827695;29;20077;-60
2023/09/17 04:10:11;;;;;;;27.15;16.08;;;;;;;-144.57;100.00;62443.72;4842452;29;20065;-60
2023/09/17 04:12:38;;;;;;;22.92;12.93;;;;;;;-144.57;100.00;62443.72;4857764;29;20527;-60
2023/09/17 04:15:08;;;;;;;17.05;11.23;;;;;;;-144.57;100.00;62443.72;4842780;29;20197;-60
2023/09/17 04:17:34;;;;;;;13.75;9.30;;;;;;;-144.57;100.00;62443.72;4859178;29;20037;-60
2023/09/17 04:20:00;;;;;;;15.50;9.50;;;;;;;-144.57;100.00;62443.72;4857783;29;20558;-61
2023/09/17 04:22:27;;;;;;;20.83;10.20;;;;;;;-144.57;100.00;62443.72;4857758;29;20053;-59
2023/09/17 04:24:52;;;;;;;20.63;11.02;;;;;;;-144.57;100.00;62443.72;4857770;29;20086;-60
2023/09/17 04:27:18;;;;;;;33.28;18.38;;;;;;;-144.57;100.00;62443.72;4858897;29;20441;-60
2023/09/17 04:29:44;;;;;;;25.33;13.57;;;;;;;-144.57;100.00;62443.72;4857618;29;20437;-61
2023/09/17 04:32:12;;;;;;;16.05;9.35;;;;;;;-144.57;100.00;62443.72;4857637;29;20072;-58
2023/09/17 04:34:38;;;;;;;15.60;9.05;;;;;;;-144.57;100.00;62443.72;4827324;29;20049;-60
2023/09/17 04:37:04;;;;;;;13.88;9.38;;;;;;;-144.57;100.00;62443.72;4857467;29;20058;-60
2023/09/17 04:39:29;;;;;;;16.23;9.40;;;;;;;-144.57;100.00;62443.72;4857917;29;20053;-61
2023/09/17 04:41:57;;;;;;;15.45;9.32;;;;;;;-144.57;100.00;62443.72;4857533;29;20046;-61
2023/09/17 04:44:22;;;;;;;13.25;9.40;;;;;;;-144.57;100.00;62443.72;4857549;29;20049;-60
2023/09/17 04:46:48;;;;;;;16.75;9.93;;;;;;;-144.57;100.00;62443.72;4860668;29;20049;-60
2023/09/17 04:49:14;;;;;;;20.30;10.60;;;;;;;-144.57;100.00;62443.72;4859979;29;20552;-60
2023/09/17 04:51:40;;;;;;;19.40;11.30;;;;;;;-144.57;100.00;62443.72;4858904;29;20081;-58
2023/09/17 04:54:06;;;;;;;18.80;11.23;;;;;;;-144.57;100.00;62443.72;4827474;29;20049;-60
2023/09/17 04:56:32;;;;;;;17.38;10.40;;;;;;;-144.57;100.00;62443.72;4858606;29;20073;-60
2023/09/17 04:58:58;;;;;;;18.05;10.63;;;;;;;-144.57;100.00;62443.72;4858887;29;20080;-59
2023/09/17 05:01:24;;;;;;;17.25;11.35;;;;;;;-144.57;100.00;62443.72;4843285;29;20045;-60
2023/09/17 05:03:50;;;;;;;22.25;11.45;;;;;;;-144.57;100.00;62443.72;4858529;29;20055;-58
2023/09/17 05:06:17;;;;;;;19.10;11.07;;;;;;;-144.57;100.00;62443.72;4860422;29;20078;-61
2023/09/17 05:08:43;;;;;;;16.45;11.20;;;;;;;-144.57;100.00;62443.72;4862365;29;20049;-60
2023/09/17 05:11:09;;;;;;;19.08;11.23;;;;;;;-144.57;100.00;62443.72;4861960;29;20657;-61
2023/09/17 05:13:35;;;;;;;16.85;12.60;;;;;;;-144.57;100.00;62443.72;4860655;29;20045;-60
2023/09/17 05:16:01;;;;;;;22.08;12.43;;;;;;;-144.57;100.00;62443.72;4860229;29;20137;-62
2023/09/17 05:18:27;;;;;;;20.75;11.85;;;;;;;-144.57;100.00;62443.72;4857835;29;20050;-60
2023/09/17 05:20:54;;;;;;;18.75;12.23;;;;;;;-144.57;100.00;62443.72;4858820;29;20064;-62
2023/09/17 05:23:21;;;;;;;27.98;17.60;;;;;;;-144.57;100.00;62443.72;4860143;29;20076;-60
2023/09/17 05:25:51;;;;;;;19.75;13.27;;;;;;;-144.57;100.00;62443.72;4859994;29;20088;-59
2023/09/17 05:28:17;;;;;;;20.65;14.00;;;;;;;-144.57;100.00;62443.72;4861417;29;20094;-61
2023/09/17 05:30:42;;;;;;;19.92;14.07;;;;;;;-144.57;100.00;62443.72;4844460;29;20144;-61
2023/09/17 05:33:08;;;;;;;23.52;13.20;;;;;;;-144.57;100.00;62443.72;4859935;29;20060;-61
2023/09/17 05:35:36;;;;;;;21.85;14.15;;;;;;;-144.57;100.00;62443.72;4860623;29;20564;-61
2023/09/17 05:38:02;;;;;;;16.55;12.50;;;;;;;-144.57;100.00;62443.72;4860026;29;20105;-60
2023/09/17 05:40:29;;;;;;;21.80;13.88;;;;;;;-144.57;100.00;62443.72;4860171;29;20050;-61
2023/09/17 05:42:57;;;;;;;21.58;14.93;;;;;;;-144.57;100.00;62443.72;4843862;29;20064;-61
2023/09/17 05:45:23;;;;;;;23.20;16.58;;;;;;;-144.57;100.00;62443.72;4860889;29;20374;-61
2023/09/17 05:47:49;;;;;;;29.00;17.58;;;;;;;-144.57;100.00;62443.72;4858410;29;20067;-62
2023/09/17 05:50:15;;;;;;;28.45;18.30;;;;;;;-144.57;100.00;62443.72;4844562;29;20136;-62
2023/09/17 05:52:42;;;;;;;31.67;18.10;;;;;;;-144.57;100.00;62443.72;4859936;29;20041;-61
2023/09/17 05:55:08;;;;;;;29.65;16.55;;;;;;;-144.57;100.00;62443.72;4858791;29;20183;-61
2023/09/17 05:57:34;;;;;;;33.45;17.85;;;;;;;-144.57;100.00;62443.72;4858130;29;20500;-59
2023/09/17 06:00:03;;;;;;;24.20;14.90;;;;;;;-144.57;100.00;62443.72;4829344;29;20053;-62
2023/09/17 06:02:29;;;;;;;23.95;14.93;;;;;;;-144.57;100.00;62443.72;4844096;29;20464;-62
2023/09/17 06:04:55;;;;;;;21.70;14.57;;;;;;;-144.57;100.00;62443.72;4859628;29;20124;-62
2023/09/17 06:07:21;;;;;;;24.00;14.30;;;;;;;-144.57;100.00;62443.72;4860525;29;20037;-62
2023/09/17 06:09:47;;;;;;;21.00;12.90;;;;;;;-144.57;100.00;62443.72;4860764;29;20049;-59
2023/09/17 06:12:13;;;;;;;19.08;11.82;;;;;;;-144.57;100.00;62443.72;4859681;29;20136;-61
2023/09/17 06:14:39;;;;;;;17.48;11.00;;;;;;;-144.57;100.00;62443.72;4860716;29;20053;-62
2023/09/17 06:17:06;;;;;;;18.95;10.68;;;;;;;-144.57;100.00;62443.72;4859228;29;20045;-60
2023/09/17 06:19:33;;;;;;;14.18;10.43;;;;;;;-144.57;100.00;62443.72;4844068;29;20533;-63
2023/09/17 06:21:59;;;;;;;16.60;10.00;;;;;;;-144.57;100.00;62443.72;4859668;29;20500;-61
2023/09/17 06:24:26;;;;;;;12.10;9.05;;;;;;;-144.57;100.00;62443.72;4828898;29;20080;-61
2023/09/17 06:26:52;;;;;;;19.13;9.15;;;;;;;-144.57;100.00;62443.72;4860593;29;20128;-61
2023/09/17 06:29:18;;;;;;;12.30;8.75;;;;;;;-144.57;100.00;62443.72;4843516;29;20057;-62
2023/09/17 06:31:44;;;;;;;14.52;9.18;;;;;;;-144.57;100.00;62443.72;4859081;29;20126;-62
2023/09/17 06:34:10;;;;;;;11.55;8.15;;;;;;;-144.57;100.00;62443.72;4843673;29;20088;-61
2023/09/17 06:36:36;;;;;;;13.77;8.93;;;;;;;-144.57;100.00;62443.72;4858897;29;20547;-59
2023/09/17 06:39:03;;;;;;;15.27;8.77;;;;;;;-144.57;100.00;62443.72;4858886;29;20404;-61
2023/09/17 06:41:28;;;;;;;11.23;8.40;;;;;;;-144.57;100.00;62443.72;4860230;29;20441;-61
2023/09/17 06:43:57;;;;;;;13.23;8.57;;;;;;;-144.57;100.00;62443.72;4858715;29;20120;-62
2023/09/17 06:46:24;;;;;;;13.55;9.02;;;;;;;-144.57;100.00;62443.72;4859795;29;20137;-63
2023/09/17 06:48:53;;;;;;;12.20;8.35;;;;;;;-144.57;100.00;62443.72;4855609;29;20140;-60
2023/09/17 06:51:20;;;;;;;30.80;19.85;;;;;;;-144.57;100.00;62443.72;4859877;29;20034;-60
2023/09/17 06:53:46;;;;;;;15.02;9.90;;;;;;;-144.57;100.00;62443.72;4858614;29;20046;-60
2023/09/17 06:56:13;;;;;;;18.08;10.75;;;;;;;-144.57;100.00;62443.72;4859701;29;20064;-60
2023/09/17 06:58:39;;;;;;;12.25;8.73;;;;;;;-144.57;100.00;62443.72;4859853;29;20045;-62
2023/09/17 07:01:05;;;;;;;14.75;8.68;;;;;;;-144.57;100.00;62443.72;4858855;29;20057;-64
2023/09/17 07:03:32;;;;;;;13.75;10.35;;;;;;;-144.57;100.00;62443.72;4859744;29;20053;-63
2023/09/17 07:05:58;;;;;;;14.88;10.25;;;;;;;-144.57;100.00;62443.72;4859924;29;20053;-61
2023/09/17 07:08:24;;;;;;;14.23;9.02;;;;;;;-144.57;100.00;62443.72;4860006;29;20411;-62
2023/09/17 07:10:51;;;;;;;11.73;8.15;;;;;;;-144.57;100.00;62443.72;4859265;29;20386;-60
2023/09/17 07:13:16;;;;;;;11.73;7.95;;;;;;;-144.57;100.00;62443.72;4858391;29;20045;-63
2023/09/17 07:15:45;;;;;;;12.82;8.18;;;;;;;-144.57;100.00;62443.72;4859621;29;20072;-63
2023/09/17 07:18:12;;;;;;;14.18;8.27;;;;;;;-144.57;100.00;62443.72;4859928;29;20069;-60
2023/09/17 07:20:38;;;;;;;13.00;7.53;;;;;;;-144.57;100.00;62443.72;4859426;29;20411;-60
2023/09/17 07:23:04;;;;;;;12.90;7.38;;;;;;;-144.57;100.00;62443.72;4859509;29;20049;-61
2023/09/17 07:25:31;;;;;;;9.43;6.35;;;;;;;-144.57;100.00;62443.72;4858407;29;20636;-62
2023/09/17 07:27:57;;;;;;;10.65;6.47;;;;;;;-144.57;100.00;62443.72;4859417;29;20049;-60
2023/09/17 07:30:23;;;;;;;10.98;7.95;;;;;;;-144.57;100.00;62443.72;4859381;29;20054;-62
2023/09/17 07:32:48;;;;;;;10.55;6.13;;;;;;;-144.57;100.00;62443.72;4859622;29;20042;-61
2023/09/17 07:35:14;;;;;;;8.20;5.53;;;;;;;-144.57;100.00;62443.72;4858088;29;20053;-62
2023/09/17 07:37:39;;;;;;;10.25;5.47;;;;;;;-144.57;100.00;62443.72;4858030;29;20061;-61
2023/09/17 07:40:06;;;;;;;7.88;4.93;;;;;;;-144.57;100.00;62443.72;4859509;29;20050;-61
2023/09/17 07:42:32;;;;;;;10.18;5.85;;;;;;;-144.57;100.00;62443.72;4859391;29;20042;-60
2023/09/17 07:44:57;;;;;;;9.15;5.20;;;;;;;-144.57;100.00;62443.72;4859594;29;20052;-61
2023/09/17 07:47:23;;;;;;;22.20;15.10;;;;;;;-144.57;100.00;62443.72;4858914;29;20049;-60
2023/09/17 07:49:49;;;;;;;38.33;22.55;;;;;;;-144.57;100.00;62443.72;4859460;29;20064;-62
2023/09/17 07:52:15;;;;;;;9.98;6.53;;;;;;;-144.57;100.00;62443.72;4859296;29;20053;-61
2023/09/17 07:54:41;;;;;;;9.00;5.80;;;;;;;-144.57;100.00;62443.72;4859206;29;20057;-63
2023/09/17 07:57:09;;;;;;;6.22;4.78;;;;;;;-144.57;100.00;62443.72;4859044;29;20045;-63
2023/09/17 07:59:35;;;;;;;6.55;3.90;;;;;;;-144.57;100.00;62443.72;4859404;29;20057;-61
2023/09/17 08:02:01;;;;;;;6.88;3.95;;;;;;;-144.57;100.00;62443.72;4859038;29;20077;-61
2023/09/17 08:04:27;;;;;;;9.10;4.15;;;;;;;-144.57;100.00;62443.72;4857793;29;20049;-61
2023/09/17 08:06:53;;;;;;;9.77;5.03;;;;;;;-144.57;100.00;62443.72;4859082;29;20049;-62
2023/09/17 08:09:18;;;;;;;9.52;5.05;;;;;;;-144.57;100.00;62443.72;4858654;29;20366;-62
2023/09/17 08:11:44;;;;;;;6.72;4.20;;;;;;;-144.57;100.00;62443.72;4857734;29;20045;-61
2023/09/17 08:14:10;;;;;;;7.80;4.55;;;;;;;-144.57;100.00;62443.72;4858830;29;20400;-61
2023/09/17 08:16:37;;;;;;;7.70;5.07;;;;;;;-144.57;100.00;62443.72;4858105;29;20555;-61
2023/09/17 08:19:05;;;;;;;10.20;5.20;;;;;;;-144.57;100.00;62443.72;4858467;29;20042;-62
2023/09/17 08:21:30;;;;;;;7.65;5.20;;;;;;;-144.57;100.00;62443.72;4861246;29;20515;-62
2023/09/17 08:24:03;;;;;;;19.33;12.98;;;;;;;-144.57;100.00;62443.72;4863063;29;20037;-61
2023/09/17 08:26:49;;;;;;;8.38;6.35;;;;;;;-144.57;100.00;62443.72;4862340;29;20086;-60
2023/09/17 08:29:35;;;;;;;8.60;6.65;;;;;;;-144.57;100.00;62443.72;4861495;29;20113;-62
2023/09/17 08:32:20;;;;;;;8.70;6.50;;;;;;;-144.57;100.00;62443.72;4862491;29;20132;-61
2023/09/17 08:35:07;;;;;;;13.68;9.07;;;;;;;-144.57;100.00;62443.72;4860859;29;20049;-60
2023/09/17 08:37:35;;;;;;;11.50;6.80;;;;;;;-144.57;100.00;62443.72;4862104;29;20049;-60
2023/09/17 08:40:01;;;;;;;10.90;6.40;;;;;;;-144.57;100.00;62443.72;4860404;29;20079;-62
2023/09/17 08:42:27;;;;;;;9.82;5.43;;;;;;;-144.57;100.00;62443.72;4862378;29;20068;-62
2023/09/17 08:44:56;;;;;;;10.05;6.47;;;;;;;-144.57;100.00;62443.72;4860932;29;20056;-62
2023/09/17 08:47:22;;;;;;;8.48;5.88;;;;;;;-144.57;100.00;62443.72;4861953;29;20049;-62
2023/09/17 08:49:48;;;;;;;8.85;5.88;;;;;;;-144.57;100.00;62443.72;4829999;29;20061;-62
2023/09/17 08:52:16;;;;;;;12.38;6.20;;;;;;;-144.57;100.00;62443.72;4862353;29;20045;-63
2023/09/17 08:54:42;;;;;;;8.77;5.53;;;;;;;-144.57;100.00;62443.72;4862105;29;20519;-63
2023/09/17 08:57:08;;;;;;;9.10;6.32;;;;;;;-144.57;100.00;62443.72;4860142;29;20056;-62
2023/09/17 08:59:39;;;;;;;8.57;6.32;;;;;;;-144.57;100.00;62443.72;4860840;29;20050;-64
2023/09/17 09:02:30;;;;;;;7.82;6.68;;;;;;;-144.57;100.00;62443.72;4861084;29;20041;-63
2023/09/17 09:04:56;;;;;;;10.38;6.90;;;;;;;-144.57;100.00;62443.72;4858944;29;20045;-60
2023/09/17 09:07:23;;;;;;;9.98;6.88;;;;;;;-144.57;100.00;62443.72;4859659;29;20045;-63
2023/09/17 09:09:52;;;;;;;8.73;7.10;;;;;;;-144.57;100.00;62443.72;4845245;29;20052;-62
2023/09/17 09:12:18;;;;;;;10.82;7.25;;;;;;;-144.57;100.00;62443.72;4860650;29;20129;-63
2023/09/17 09:14:44;;;;;;;12.18;8.10;;;;;;;-144.57;100.00;62443.72;4861831;29;20045;-63
2023/09/17 09:17:11;;;;;;;13.32;8.23;;;;;;;-144.57;100.00;62443.72;4845043;29;20151;-63
2023/09/17 09:19:37;;;;;;;13.98;8.52;;;;;;;-144.57;100.00;62443.72;4844147;29;20052;-62
2023/09/17 09:22:03;;;;;;;12.50;8.65;;;;;;;-144.57;100.00;62443.72;4841973;29;20046;-60
2023/09/17 09:24:39;;;;;;;13.07;9.32;;;;;;;-144.57;100.00;62443.72;4842141;29;20054;-64
2023/09/17 09:27:06;;;;;;;12.25;9.20;;;;;;;-144.57;100.00;62443.72;4843319;29;20050;-62
2023/09/17 09:29:31;;;;;;;14.00;8.55;;;;;;;-144.57;100.00;62443.72;4842277;29;20190;-64
2023/09/17 09:31:58;;;;;;;14.00;9.00;;;;;;;-144.57;100.00;62443.72;4843089;29;20137;-62
2023/09/17 09:34:25;;;;;;;12.85;9.35;;;;;;;-144.57;100.00;62443.72;4825273;29;20042;-61
2023/09/17 09:36:51;;;;;;;13.88;9.70;;;;;;;-144.57;100.00;62443.72;4825342;29;20064;-62
2023/09/17 09:39:17;;;;;;;14.43;9.50;;;;;;;-144.57;100.00;62443.72;4841643;29;20057;-61
2023/09/17 09:41:43;;;;;;;14.73;9.20;;;;;;;-144.57;100.00;62443.72;4841735;29;20126;-61
2023/09/17 09:44:08;;;;;;;15.43;9.40;;;;;;;-144.57;100.00;62443.72;4841629;29;20056;-62
2023/09/17 09:46:35;;;;;;;15.75;9.02;;;;;;;-144.57;100.00;62443.72;4858431;29;20515;-63
2023/09/17 09:49:01;;;;;;;12.52;8.57;;;;;;;-144.57;100.00;62443.72;4860067;29;20155;-61
2023/09/17 09:51:31;;;;;;;13.27;9.90;;;;;;;-144.57;100.00;62443.72;4861268;29;20064;-62
2023/09/17 09:53:57;;;;;;;13.40;9.05;;;;;;;-144.57;100.00;62443.72;4861125;29;20603;-63
2023/09/17 09:56:27;;;;;;;14.40;9.95;;;;;;;-144.57;100.00;62443.72;4859904;29;20143;-64
2023/09/17 09:58:56;;;;;;;;;;;;;;;-144.57;100.00;62443.72;4844872;29;20037;-62
2023/09/17 10:01:22;;;;;;;15.27;8.73;;;;;;;-144.57;100.00;62443.72;4859829;29;19928;-60
2023/09/17 10:03:50;;;;;;;12.43;8.35;;;;;;;-144.57;100.00;62443.72;4859747;29;20101;-62
2023/09/17 10:06:16;;;;;;;10.23;7.45;;;;;;;-144.57;100.00;62443.72;4860004;29;20073;-62
2023/09/17 10:08:41;;;;;;;10.80;8.05;;;;;;;-144.57;100.00;62443.72;4860480;29;20076;-61
2023/09/17 10:11:07;;;;;;;10.85;7.82;;;;;;;-144.57;100.00;62443.72;4844568;29;20411;-62
2023/09/17 10:13:33;;;;;;;14.80;7.20;;;;;;;-144.57;100.00;62443.72;4860777;29;20057;-61
2023/09/17 10:16:01;;;;;;;11.73;7.50;;;;;;;-144.57;100.00;62443.72;4859050;29;20134;-62
2023/09/17 10:18:27;;;;;;;10.65;6.38;;;;;;;-144.57;100.00;62443.72;4845056;29;20500;-61
2023/09/17 10:20:54;;;;;;;8.25;5.85;;;;;;;-144.57;100.00;62443.72;4844112;29;20049;-60
2023/09/17 10:23:21;;;;;;;14.20;7.20;;;;;;;-144.57;100.00;62443.72;4860602;29;20156;-61
2023/09/17 10:25:48;;;;;;;13.60;6.38;;;;;;;-144.57;100.00;62443.72;4859606;29;20432;-61
2023/09/17 10:28:15;;;;;;;11.00;6.03;;;;;;;-144.57;100.00;62443.72;4859542;29;20045;-61
2023/09/17 10:30:43;;;;;;;11.75;5.85;;;;;;;-144.57;100.00;62443.72;4860859;29;20089;-62
2023/09/17 10:33:10;;;;;;;11.07;6.45;;;;;;;-144.57;100.00;62443.72;4859277;29;20053;-62
2023/09/17 10:35:37;;;;;;;10.55;6.07;;;;;;;-144.57;100.00;62443.72;4859301;29;20140;-62
2023/09/17 10:38:05;;;;;;;9.90;6.47;;;;;;;-144.57;100.00;62443.72;4859019;29;20045;-62
2023/09/17 10:40:31;;;;;;;11.18;6.75;;;;;;;-144.57;100.00;62443.72;4860852;29;20415;-61
2023/09/17 10:43:02;;;;;;;10.23;6.70;;;;;;;-144.57;100.00;62443.72;4843559;29;20357;-61
2023/09/17 10:45:34;;;;;;;8.75;5.32;;;;;;;-144.57;100.00;62443.72;4860703;29;20041;-63
2023/09/17 10:48:01;;;;;;;12.45;5.50;;;;;;;-144.57;100.00;62443.72;4860551;29;20076;-62
2023/09/17 10:50:29;;;;;;;7.53;5.10;;;;;;;-144.57;100.00;62443.72;4843752;29;20508;-62
2023/09/17 10:52:55;;;;;;;19.17;13.23;;;;;;;-144.57;100.00;62443.72;4860149;29;20060;-62
2023/09/17 10:55:22;;;;;;;9.52;5.63;;;;;;;-144.57;100.00;62443.72;4825306;29;20397;-63
2023/09/17 10:57:59;;;;;;;11.63;5.25;;;;;;;-144.57;100.00;62443.72;4852412;29;20057;-62
2023/09/17 11:00:25;;;;;;;7.78;5.10;;;;;;;-144.57;100.00;62443.72;4858447;29;20041;-62